Time;durP1;ratioP1;P1;durP2;ratioP2;P2;SDS_P1;SDS_P2;PMS_P1;PMS_P2;Temp;Humidity;BMP_temperature;BMP_pressure;BME280_temperature;BME280_humidity;BME280_pressure;Samples;Min_cycle;Max_cycle;Signal;HPM_P1;HPM_P2
2022/07/30 00:00:15;;;;;;;11.73;10.63;;;;;;;;;;5108110;28;25055;-46
2022/07/30 00:05:43;;;;;;;9.35;8.57;;;;;;;;;;5097862;28;24822;-45
2022/07/30 00:08:08;;;;;;;9.07;8.30;;;;;;;;;;5100033;28;24417;-44
2022/07/30 00:10:33;;;;;;;8.37;7.57;;;;;;;;;;5107478;28;24744;-45
2022/07/30 00:12:58;;;;;;;7.33;6.73;;;;;;;;;;5107953;28;24447;-45
2022/07/30 00:15:23;;;;;;;7.40;6.80;;;;;;;;;;5107734;28;24394;-46
2022/07/30 00:17:48;;;;;;;7.60;7.10;;;;;;;;;;5107568;28;24920;-45
2022/07/30 00:20:14;;;;;;;7.30;6.70;;;;;;;;;;5106572;28;24505;-45
2022/07/30 00:22:39;;;;;;;7.30;6.70;;;;;;;;;;5107744;28;24807;-46
2022/07/30 00:25:04;;;;;;;7.50;6.80;;;;;;;;;;5107333;28;24416;-45
2022/07/30 00:27:33;;;;;;;6.30;5.70;;;;;;;;;;5105793;28;24566;-46
2022/07/30 00:29:58;;;;;;;6.30;5.80;;;;;;;;;;5107230;28;24408;-45
2022/07/30 00:32:23;;;;;;;6.50;5.90;;;;;;;;;;5107302;28;24516;-46
2022/07/30 00:34:49;;;;;;;6.72;6.13;;;;;;;;;;5107373;28;24434;-46
2022/07/30 00:37:14;;;;;;;6.60;6.10;;;;;;;;;;5106615;28;24935;-45
2022/07/30 00:39:39;;;;;;;6.93;6.40;;;;;;;;;;5107290;28;24478;-46
2022/07/30 00:42:04;;;;;;;7.00;6.50;;;;;;;;;;5107090;28;24386;-45
2022/07/30 00:44:29;;;;;;;7.30;6.80;;;;;;;;;;5107002;28;24410;-45
2022/07/30 00:46:55;;;;;;;7.05;6.55;;;;;;;;;;5095709;28;24425;-45
2022/07/30 00:49:20;;;;;;;6.93;6.43;;;;;;;;;;5101249;28;24448;-45
2022/07/30 00:51:46;;;;;;;7.00;6.50;;;;;;;;;;5097908;28;24421;-46
2022/07/30 00:54:11;;;;;;;6.80;6.30;;;;;;;;;;5088941;28;25289;-45
2022/07/30 00:56:36;;;;;;;8.07;7.47;;;;;;;;;;5102859;28;24469;-44
2022/07/30 00:59:03;;;;;;;7.85;7.15;;;;;;;;;;5096784;28;21188;-45
2022/07/30 01:01:30;;;;;;;7.30;6.60;;;;;;;;;;5097746;28;24964;-44
2022/07/30 01:03:55;;;;;;;8.10;7.50;;;;;;;;;;5093106;28;24497;-45
2022/07/30 01:06:20;;;;;;;7.30;6.70;;;;;;;;;;5103361;28;25107;-45
2022/07/30 01:08:45;;;;;;;7.95;7.35;;;;;;;;;;5089073;28;24414;-44
2022/07/30 01:11:10;;;;;;;6.47;5.97;;;;;;;;;;5086088;28;24493;-45
2022/07/30 01:13:36;;;;;;;7.80;7.20;;;;;;;;;;5099669;28;24447;-44
2022/07/30 01:16:01;;;;;;;7.23;6.63;;;;;;;;;;5088389;28;24979;-45
2022/07/30 01:19:47;;;;;;;6.43;5.90;;;;;;;;;;5098494;28;24479;-44
2022/07/30 01:21:14;;;;;;;6.57;6.13;;;;;;;;;;5097279;28;24409;-45
2022/07/30 01:23:42;;;;;;;7.18;6.40;;;;;;;;;;5102586;28;24425;-45
2022/07/30 01:26:13;;;;;;;7.35;6.75;;;;;;;;;;5100771;28;24422;-45
2022/07/30 01:28:41;;;;;;;7.05;6.45;;;;;;;;;;5106211;28;24483;-45
2022/07/30 01:31:06;;;;;;;7.00;6.40;;;;;;;;;;5102875;28;24512;-45
2022/07/30 01:33:33;;;;;;;6.20;5.70;;;;;;;;;;5094181;28;24846;-46
2022/07/30 01:36:00;;;;;;;6.63;6.13;;;;;;;;;;5096606;28;25014;-46
2022/07/30 01:38:26;;;;;;;6.57;5.97;;;;;;;;;;5087720;28;24516;-45
2022/07/30 01:40:51;;;;;;;6.88;6.38;;;;;;;;;;5085966;28;24454;-45
2022/07/30 01:43:17;;;;;;;6.30;5.80;;;;;;;;;;5094142;28;24891;-45
2022/07/30 01:45:43;;;;;;;6.45;5.85;;;;;;;;;;5099615;28;24517;-45
2022/07/30 01:48:09;;;;;;;6.60;6.20;;;;;;;;;;5089793;28;25141;-44
2022/07/30 01:50:35;;;;;;;6.95;6.45;;;;;;;;;;5101094;28;24454;-45
2022/07/30 01:53:01;;;;;;;7.28;6.68;;;;;;;;;;5099981;28;24491;-45
2022/07/30 01:55:29;;;;;;;7.00;6.40;;;;;;;;;;5101070;28;24549;-45
2022/07/30 01:57:56;;;;;;;6.40;6.00;;;;;;;;;;5093042;28;24410;-45
2022/07/30 02:00:22;;;;;;;6.63;6.13;;;;;;;;;;5095880;28;24416;-45
2022/07/30 02:02:47;;;;;;;7.40;6.75;;;;;;;;;;5094338;28;24783;-46
2022/07/30 02:05:12;;;;;;;6.40;5.90;;;;;;;;;;5093539;28;24509;-45
2022/07/30 02:07:40;;;;;;;7.17;6.60;;;;;;;;;;5104554;28;24477;-45
2022/07/30 02:10:14;;;;;;;7.25;6.70;;;;;;;;;;5088270;28;24426;-45
2022/07/30 02:12:49;;;;;;;7.50;6.90;;;;;;;;;;5101783;28;24434;-45
2022/07/30 02:15:23;;;;;;;7.50;6.90;;;;;;;;;;5089111;28;24455;-45
2022/07/30 02:17:53;;;;;;;7.13;6.53;;;;;;;;;;5105060;28;24417;-45
2022/07/30 02:20:20;;;;;;;7.15;6.57;;;;;;;;;;5091406;28;24418;-45
2022/07/30 02:22:46;;;;;;;7.38;6.70;;;;;;;;;;5107495;28;24445;-45
2022/07/30 02:25:14;;;;;;;7.70;7.00;;;;;;;;;;5091901;27;24484;-44
2022/07/30 02:27:40;;;;;;;7.50;6.80;;;;;;;;;;5107952;27;24490;-46
2022/07/30 02:30:06;;;;;;;7.75;7.15;;;;;;;;;;5097632;28;24441;-45
2022/07/30 02:32:33;;;;;;;7.50;7.00;;;;;;;;;;5107139;28;24429;-45
2022/07/30 02:35:00;;;;;;;8.52;7.93;;;;;;;;;;5106145;28;24444;-46
2022/07/30 02:37:26;;;;;;;8.25;7.55;;;;;;;;;;5095529;28;24433;-44
2022/07/30 02:39:52;;;;;;;6.60;6.10;;;;;;;;;;5108323;27;24425;-44
2022/07/30 02:42:18;;;;;;;7.20;6.65;;;;;;;;;;5090521;28;24456;-45
2022/07/30 02:44:44;;;;;;;7.60;7.00;;;;;;;;;;5089420;28;24483;-45
2022/07/30 02:47:11;;;;;;;7.18;6.47;;;;;;;;;;5094172;27;24517;-44
2022/07/30 02:49:38;;;;;;;6.80;6.30;;;;;;;;;;5096262;28;24445;-44
2022/07/30 02:52:04;;;;;;;6.15;5.55;;;;;;;;;;5095670;28;25014;-45
2022/07/30 02:54:29;;;;;;;6.40;5.90;;;;;;;;;;5102497;28;24432;-45
2022/07/30 02:56:56;;;;;;;7.70;7.10;;;;;;;;;;5090935;28;24399;-45
2022/07/30 02:59:22;;;;;;;6.87;6.27;;;;;;;;;;5096125;28;24468;-45
2022/07/30 03:01:48;;;;;;;8.02;7.43;;;;;;;;;;5097804;28;24418;-45
2022/07/30 03:04:14;;;;;;;8.00;7.40;;;;;;;;;;5104949;28;24487;-44
2022/07/30 03:06:40;;;;;;;7.45;6.88;;;;;;;;;;5108118;27;24599;-47
2022/07/30 03:09:06;;;;;;;7.53;6.82;;;;;;;;;;5092907;28;24554;-46
2022/07/30 03:11:33;;;;;;;6.80;6.30;;;;;;;;;;5088419;27;24442;-45
2022/07/30 03:13:58;;;;;;;7.45;6.65;;;;;;;;;;5090117;27;25011;-46
2022/07/30 03:16:24;;;;;;;7.40;6.80;;;;;;;;;;5108711;28;24521;-46
2022/07/30 03:18:52;;;;;;;7.50;6.90;;;;;;;;;;5089995;28;24964;-46
2022/07/30 03:21:18;;;;;;;7.97;7.28;;;;;;;;;;5104536;28;24978;-46
2022/07/30 03:23:45;;;;;;;8.80;8.00;;;;;;;;;;5099727;28;24425;-47
2022/07/30 03:26:11;;;;;;;8.57;7.88;;;;;;;;;;5096557;28;24465;-46
2022/07/30 03:28:38;;;;;;;7.10;6.50;;;;;;;;;;5090915;28;24625;-46
2022/07/30 03:31:04;;;;;;;8.10;7.50;;;;;;;;;;5099783;27;24460;-46
2022/07/30 03:33:30;;;;;;;6.70;6.20;;;;;;;;;;5091473;28;24445;-46
2022/07/30 03:35:55;;;;;;;6.80;6.15;;;;;;;;;;5090554;28;24916;-46
2022/07/30 03:38:21;;;;;;;7.33;6.73;;;;;;;;;;5101850;27;24428;-46
2022/07/30 03:40:46;;;;;;;6.97;6.45;;;;;;;;;;5089287;28;24952;-46
2022/07/30 03:43:12;;;;;;;7.30;6.80;;;;;;;;;;5099502;27;24425;-45
2022/07/30 03:45:40;;;;;;;7.10;6.60;;;;;;;;;;5096953;27;24444;-45
2022/07/30 03:48:09;;;;;;;6.90;6.30;;;;;;;;;;5096701;28;24426;-45
2022/07/30 03:50:35;;;;;;;7.20;6.70;;;;;;;;;;5088449;28;25055;-45
2022/07/30 03:53:01;;;;;;;7.32;6.72;;;;;;;;;;5090018;27;24440;-45
2022/07/30 03:55:27;;;;;;;7.75;7.20;;;;;;;;;;5099923;28;24418;-45
2022/07/30 03:57:52;;;;;;;9.40;8.60;;;;;;;;;;5095130;27;24844;-45
2022/07/30 04:00:17;;;;;;;7.90;7.30;;;;;;;;;;5107482;27;24902;-45
2022/07/30 04:02:43;;;;;;;8.10;7.40;;;;;;;;;;5105299;28;24476;-44
2022/07/30 04:05:10;;;;;;;7.70;7.00;;;;;;;;;;5093797;27;24471;-45
2022/07/30 04:07:35;;;;;;;7.15;6.65;;;;;;;;;;5100896;28;24990;-45
2022/07/30 04:10:00;;;;;;;8.10;7.50;;;;;;;;;;5090381;28;24429;-45
2022/07/30 04:12:25;;;;;;;8.57;7.87;;;;;;;;;;5088552;27;24438;-45
2022/07/30 04:14:52;;;;;;;8.80;8.10;;;;;;;;;;5087261;28;24491;-45
2022/07/30 04:17:21;;;;;;;9.00;8.30;;;;;;;;;;5101252;28;24424;-45
2022/07/30 04:19:48;;;;;;;8.30;7.63;;;;;;;;;;5104323;27;24414;-45
2022/07/30 04:22:15;;;;;;;9.43;8.63;;;;;;;;;;5104007;28;24989;-45
2022/07/30 04:24:40;;;;;;;8.85;8.15;;;;;;;;;;5091873;28;24595;-46
2022/07/30 04:27:06;;;;;;;9.50;8.70;;;;;;;;;;5105078;28;25518;-44
2022/07/30 04:29:31;;;;;;;8.20;7.60;;;;;;;;;;5099138;28;24471;-45
2022/07/30 04:31:56;;;;;;;8.60;8.00;;;;;;;;;;5088018;28;24426;-45
2022/07/30 04:34:21;;;;;;;9.00;8.40;;;;;;;;;;5103142;28;24456;-46
2022/07/30 04:36:47;;;;;;;8.90;8.20;;;;;;;;;;5103250;28;24425;-45
2022/07/30 04:39:12;;;;;;;8.50;7.90;;;;;;;;;;5102612;28;24784;-45
2022/07/30 04:41:37;;;;;;;8.70;8.00;;;;;;;;;;5090051;28;24471;-45
2022/07/30 04:44:03;;;;;;;9.87;8.97;;;;;;;;;;5086541;28;24503;-46
2022/07/30 04:46:28;;;;;;;9.30;8.60;;;;;;;;;;5098995;28;24428;-46
2022/07/30 04:48:53;;;;;;;9.00;8.20;;;;;;;;;;5086887;27;24464;-45
2022/07/30 04:51:21;;;;;;;8.67;8.07;;;;;;;;;;5102742;28;24441;-45
2022/07/30 04:53:47;;;;;;;9.60;8.80;;;;;;;;;;5087626;28;25556;-46
2022/07/30 04:56:13;;;;;;;9.45;8.65;;;;;;;;;;5098888;28;24484;-46
2022/07/30 04:58:40;;;;;;;8.65;8.00;;;;;;;;;;5093463;28;24417;-46
2022/07/30 05:01:06;;;;;;;9.15;8.45;;;;;;;;;;5101574;28;24446;-46
2022/07/30 05:03:32;;;;;;;8.40;7.80;;;;;;;;;;5095509;28;24705;-46
2022/07/30 05:05:59;;;;;;;9.87;8.97;;;;;;;;;;5106849;28;24950;-45
2022/07/30 05:08:25;;;;;;;8.65;7.85;;;;;;;;;;5106832;28;24390;-45
2022/07/30 05:10:50;;;;;;;8.63;7.78;;;;;;;;;;5105857;28;24481;-46
2022/07/30 05:13:15;;;;;;;9.67;8.77;;;;;;;;;;5106791;28;24504;-46
2022/07/30 05:15:43;;;;;;;8.90;8.20;;;;;;;;;;5107396;28;24516;-45
2022/07/30 05:18:08;;;;;;;8.23;7.53;;;;;;;;;;5106504;28;24404;-46
2022/07/30 05:20:33;;;;;;;8.47;7.77;;;;;;;;;;5106630;28;24488;-45
2022/07/30 05:22:58;;;;;;;9.00;8.17;;;;;;;;;;5106827;28;24429;-46
2022/07/30 05:25:23;;;;;;;9.20;8.30;;;;;;;;;;5098259;28;24536;-46
2022/07/30 05:27:50;;;;;;;8.10;7.40;;;;;;;;;;5088442;27;24619;-47
2022/07/30 05:30:15;;;;;;;8.50;7.63;;;;;;;;;;5086312;28;24513;-45
2022/07/30 05:32:40;;;;;;;7.45;6.75;;;;;;;;;;5085908;28;24517;-45
2022/07/30 05:35:05;;;;;;;7.72;7.03;;;;;;;;;;5086501;28;24390;-44
2022/07/30 05:37:32;;;;;;;9.70;8.90;;;;;;;;;;5085744;28;24985;-45
2022/07/30 05:39:57;;;;;;;8.43;7.82;;;;;;;;;;5085860;28;24386;-45
2022/07/30 05:42:22;;;;;;;9.05;8.27;;;;;;;;;;5086147;28;24405;-45
2022/07/30 05:44:47;;;;;;;8.23;7.53;;;;;;;;;;5089600;28;24512;-46
2022/07/30 05:47:13;;;;;;;8.07;7.38;;;;;;;;;;5098722;28;24428;-45
2022/07/30 05:49:38;;;;;;;7.85;7.25;;;;;;;;;;5106315;28;24537;-45
2022/07/30 05:52:03;;;;;;;7.50;6.80;;;;;;;;;;5093784;28;24433;-45
2022/07/30 05:54:28;;;;;;;8.20;7.53;;;;;;;;;;5098276;28;24765;-44
2022/07/30 05:56:53;;;;;;;7.78;7.07;;;;;;;;;;5086755;28;24434;-43
2022/07/30 05:59:19;;;;;;;8.20;7.50;;;;;;;;;;5091491;28;24418;-44
2022/07/30 06:01:44;;;;;;;8.15;7.43;;;;;;;;;;5087768;28;24898;-44
2022/07/30 06:04:09;;;;;;;7.80;7.20;;;;;;;;;;5091554;27;25018;-45
2022/07/30 06:06:34;;;;;;;8.00;7.30;;;;;;;;;;5106427;28;24425;-44
2022/07/30 06:09:00;;;;;;;8.20;7.43;;;;;;;;;;5100782;27;24492;-45
2022/07/30 06:11:25;;;;;;;8.38;7.68;;;;;;;;;;5105923;28;24987;-46
2022/07/30 06:13:50;;;;;;;8.65;7.95;;;;;;;;;;5086739;28;24528;-45
2022/07/30 06:16:15;;;;;;;8.38;7.68;;;;;;;;;;5098049;27;24489;-45
2022/07/30 06:18:40;;;;;;;7.40;6.80;;;;;;;;;;5089398;28;24398;-45
2022/07/30 06:21:05;;;;;;;8.63;7.82;;;;;;;;;;5086359;28;24436;-46
2022/07/30 06:23:31;;;;;;;8.43;7.80;;;;;;;;;;5107418;28;24394;-45
2022/07/30 06:25:56;;;;;;;8.63;7.93;;;;;;;;;;5095590;27;24421;-45
2022/07/30 06:28:21;;;;;;;8.00;7.33;;;;;;;;;;5104434;27;25080;-46
2022/07/30 06:30:47;;;;;;;7.88;7.13;;;;;;;;;;5103981;27;24420;-46
2022/07/30 06:33:12;;;;;;;8.93;8.32;;;;;;;;;;5101854;28;24448;-45
2022/07/30 06:35:38;;;;;;;8.20;7.50;;;;;;;;;;5090604;28;24422;-46
2022/07/30 06:38:03;;;;;;;8.80;7.90;;;;;;;;;;5098059;28;24422;-46
2022/07/30 06:40:28;;;;;;;8.70;7.90;;;;;;;;;;5096133;27;24516;-45
2022/07/30 06:42:53;;;;;;;9.57;8.77;;;;;;;;;;5104490;28;24421;-45
2022/07/30 06:45:18;;;;;;;8.48;7.78;;;;;;;;;;5095623;28;24420;-46
2022/07/30 06:47:43;;;;;;;8.73;7.93;;;;;;;;;;5109142;28;24436;-45
2022/07/30 06:50:09;;;;;;;8.02;7.43;;;;;;;;;;5103175;28;25078;-45
2022/07/30 06:52:34;;;;;;;7.82;7.18;;;;;;;;;;5100796;28;24440;-45
2022/07/30 06:54:59;;;;;;;7.47;6.80;;;;;;;;;;5105106;28;24520;-45
2022/07/30 06:57:24;;;;;;;7.47;6.97;;;;;;;;;;5099561;27;24418;-45
2022/07/30 06:59:49;;;;;;;8.77;8.07;;;;;;;;;;5092789;27;24670;-46
2022/07/30 07:02:15;;;;;;;8.00;7.20;;;;;;;;;;5092350;28;24476;-46
2022/07/30 07:04:40;;;;;;;8.35;7.55;;;;;;;;;;5088963;28;24448;-46
2022/07/30 07:07:05;;;;;;;8.53;7.50;;;;;;;;;;5098542;27;25009;-45
2022/07/30 07:09:30;;;;;;;8.10;7.40;;;;;;;;;;5097610;28;24471;-44
2022/07/30 07:11:56;;;;;;;7.72;7.13;;;;;;;;;;5088873;28;24437;-44
2022/07/30 07:14:21;;;;;;;9.10;8.30;;;;;;;;;;5103934;28;25292;-45
2022/07/30 07:16:47;;;;;;;7.30;6.70;;;;;;;;;;5091535;28;24422;-45
2022/07/30 07:19:12;;;;;;;9.13;8.25;;;;;;;;;;5099466;28;24975;-45
2022/07/30 07:21:37;;;;;;;7.77;7.07;;;;;;;;;;5092857;28;24556;-45
2022/07/30 07:24:02;;;;;;;6.70;6.10;;;;;;;;;;5105062;28;24498;-46
2022/07/30 07:26:29;;;;;;;7.60;6.90;;;;;;;;;;5109178;28;24397;-45
2022/07/30 07:28:54;;;;;;;6.90;6.30;;;;;;;;;;5108714;28;24519;-45
2022/07/30 07:31:19;;;;;;;7.20;6.70;;;;;;;;;;5108884;28;24496;-45
2022/07/30 07:33:46;;;;;;;8.23;7.53;;;;;;;;;;5108519;28;24451;-45
2022/07/30 07:36:12;;;;;;;8.30;7.30;;;;;;;;;;5108537;28;24401;-46
2022/07/30 07:38:37;;;;;;;6.77;6.23;;;;;;;;;;5108827;28;24386;-45
2022/07/30 07:41:02;;;;;;;7.93;7.33;;;;;;;;;;5108636;28;25324;-46
2022/07/30 07:43:27;;;;;;;8.03;7.43;;;;;;;;;;5108775;28;24420;-45
2022/07/30 07:45:52;;;;;;;7.77;7.17;;;;;;;;;;5108687;28;24465;-46
2022/07/30 07:48:18;;;;;;;7.50;6.90;;;;;;;;;;5108791;28;24781;-46
2022/07/30 07:50:43;;;;;;;7.80;7.20;;;;;;;;;;5108211;28;25301;-46
2022/07/30 07:53:08;;;;;;;8.50;7.80;;;;;;;;;;5107906;28;24810;-45
2022/07/30 07:55:34;;;;;;;8.00;7.40;;;;;;;;;;5108531;28;24992;-45
2022/07/30 07:57:59;;;;;;;9.20;8.30;;;;;;;;;;5108230;28;24389;-44
2022/07/30 08:00:24;;;;;;;8.40;7.70;;;;;;;;;;5108343;28;24408;-45
2022/07/30 08:02:49;;;;;;;7.90;7.10;;;;;;;;;;5107442;28;24393;-45
2022/07/30 08:05:15;;;;;;;7.90;7.30;;;;;;;;;;5107958;28;24393;-44
2022/07/30 08:07:41;;;;;;;8.53;7.83;;;;;;;;;;5108397;28;24482;-45
2022/07/30 08:10:06;;;;;;;8.80;8.10;;;;;;;;;;5107742;28;24903;-45
2022/07/30 08:12:32;;;;;;;8.90;8.10;;;;;;;;;;5108047;28;24432;-46
2022/07/30 08:14:57;;;;;;;9.13;8.33;;;;;;;;;;5107224;28;24421;-45
2022/07/30 08:17:22;;;;;;;9.27;8.47;;;;;;;;;;5107664;28;25062;-45
2022/07/30 08:19:47;;;;;;;11.07;10.17;;;;;;;;;;5107892;28;24390;-45
2022/07/30 08:22:12;;;;;;;9.60;8.80;;;;;;;;;;5107828;28;24401;-45
2022/07/30 08:24:38;;;;;;;9.40;8.70;;;;;;;;;;5107814;28;24909;-45
2022/07/30 08:27:03;;;;;;;9.80;9.00;;;;;;;;;;5108042;28;24413;-45
2022/07/30 08:29:28;;;;;;;8.87;8.17;;;;;;;;;;5107687;28;24505;-44
2022/07/30 08:31:54;;;;;;;9.73;8.83;;;;;;;;;;5107629;28;24423;-44
2022/07/30 08:34:19;;;;;;;8.77;8.07;;;;;;;;;;5107062;28;24408;-46
2022/07/30 08:36:44;;;;;;;8.70;8.00;;;;;;;;;;5107445;28;24389;-45
2022/07/30 08:39:09;;;;;;;9.70;8.80;;;;;;;;;;5107246;28;24912;-45
2022/07/30 08:41:35;;;;;;;10.88;9.90;;;;;;;;;;5107381;28;24431;-45
2022/07/30 08:44:01;;;;;;;10.40;9.50;;;;;;;;;;5107250;28;24743;-45
2022/07/30 08:46:28;;;;;;;9.80;9.00;;;;;;;;;;5107211;28;24936;-44
2022/07/30 08:48:54;;;;;;;9.50;8.70;;;;;;;;;;5107183;28;24438;-46
2022/07/30 08:51:19;;;;;;;10.20;9.30;;;;;;;;;;5107011;28;24468;-45
2022/07/30 08:53:45;;;;;;;8.77;8.10;;;;;;;;;;5106664;28;24398;-46
2022/07/30 08:56:10;;;;;;;10.13;9.20;;;;;;;;;;5107473;28;24440;-46
2022/07/30 08:58:35;;;;;;;10.30;9.50;;;;;;;;;;5107061;28;24390;-46
2022/07/30 09:01:01;;;;;;;10.87;9.97;;;;;;;;;;5107413;28;25294;-46
2022/07/30 09:03:26;;;;;;;8.97;8.27;;;;;;;;;;5106691;28;24455;-46
2022/07/30 09:05:51;;;;;;;9.23;8.43;;;;;;;;;;5106962;28;24456;-46
2022/07/30 09:08:16;;;;;;;9.25;8.45;;;;;;;;;;5107025;28;24450;-46
2022/07/30 09:10:43;;;;;;;9.07;8.35;;;;;;;;;;5106801;28;24416;-46
2022/07/30 09:13:26;;;;;;;8.73;7.93;;;;;;;;;;5106674;28;25011;-46
2022/07/30 09:15:52;;;;;;;9.70;8.70;;;;;;;;;;5106634;28;24741;-46
2022/07/30 09:18:31;;;;;;;9.43;8.73;;;;;;;;;;5106723;28;24947;-44
2022/07/30 09:21:00;;;;;;;8.80;8.10;;;;;;;;;;5106558;28;24833;-45
2022/07/30 09:23:25;;;;;;;8.15;7.55;;;;;;;;;;5106507;28;25028;-45
2022/07/30 09:25:50;;;;;;;9.63;8.73;;;;;;;;;;5106959;28;24474;-45
2022/07/30 09:28:26;;;;;;;8.60;7.90;;;;;;;;;;5106290;28;24408;-45
2022/07/30 09:30:52;;;;;;;8.50;7.80;;;;;;;;;;5106643;28;24577;-45
2022/07/30 09:33:36;;;;;;;8.38;7.50;;;;;;;;;;5106309;28;24433;-45
2022/07/30 09:36:02;;;;;;;8.25;7.60;;;;;;;;;;5106303;28;24393;-45
2022/07/30 09:38:27;;;;;;;9.52;8.70;;;;;;;;;;5106336;28;24399;-45
2022/07/30 09:40:54;;;;;;;9.40;8.50;;;;;;;;;;5106415;28;24485;-44
2022/07/30 09:43:19;;;;;;;9.55;8.75;;;;;;;;;;5105836;28;25029;-45
2022/07/30 09:45:56;;;;;;;8.10;7.30;;;;;;;;;;5106713;28;24424;-45
2022/07/30 09:48:22;;;;;;;9.52;8.63;;;;;;;;;;5106578;28;24386;-45
2022/07/30 09:50:48;;;;;;;8.50;7.60;;;;;;;;;;5106508;28;24414;-45
2022/07/30 09:53:14;;;;;;;8.83;8.13;;;;;;;;;;5105589;28;24436;-46
2022/07/30 09:55:39;;;;;;;9.00;8.20;;;;;;;;;;5107153;28;24397;-46
2022/07/30 09:58:05;;;;;;;8.60;7.90;;;;;;;;;;5106411;28;24969;-45
2022/07/30 10:00:31;;;;;;;8.80;8.10;;;;;;;;;;5106684;28;24397;-45
2022/07/30 10:02:58;;;;;;;8.77;7.45;;;;;;;;;;5106340;28;24397;-45
2022/07/30 10:05:24;;;;;;;7.97;7.37;;;;;;;;;;5105967;28;25286;-45
2022/07/30 10:07:51;;;;;;;8.80;8.10;;;;;;;;;;5106249;28;24427;-45
2022/07/30 10:10:17;;;;;;;8.60;7.70;;;;;;;;;;5106454;28;24394;-45
2022/07/30 10:12:43;;;;;;;9.23;8.52;;;;;;;;;;5105846;28;24422;-45
2022/07/30 10:15:08;;;;;;;9.38;8.57;;;;;;;;;;5105936;28;24417;-45
2022/07/30 10:17:37;;;;;;;9.83;8.93;;;;;;;;;;5106377;28;24398;-45
2022/07/30 10:20:02;;;;;;;9.63;8.82;;;;;;;;;;5105847;28;24515;-45
2022/07/30 10:22:28;;;;;;;9.98;9.07;;;;;;;;;;5105926;28;25108;-45
2022/07/30 10:24:53;;;;;;;9.57;8.70;;;;;;;;;;5106138;28;24492;-45
2022/07/30 10:27:19;;;;;;;11.23;10.33;;;;;;;;;;5105536;28;24406;-46
2022/07/30 10:29:44;;;;;;;10.10;9.20;;;;;;;;;;5106453;28;24489;-46
2022/07/30 10:32:09;;;;;;;11.27;10.17;;;;;;;;;;5105701;28;24768;-45
2022/07/30 10:34:36;;;;;;;10.85;9.85;;;;;;;;;;5106117;28;24954;-45
2022/07/30 10:37:02;;;;;;;10.30;9.50;;;;;;;;;;5106637;28;24484;-45
2022/07/30 10:39:34;;;;;;;10.15;9.25;;;;;;;;;;5109578;28;24873;-45
2022/07/30 10:42:00;;;;;;;10.40;9.50;;;;;;;;;;5109385;28;24472;-45
2022/07/30 10:44:44;;;;;;;9.27;8.57;;;;;;;;;;5109820;28;24405;-45
2022/07/30 10:47:12;;;;;;;10.30;9.60;;;;;;;;;;5109137;28;24959;-45
2022/07/30 10:49:38;;;;;;;9.25;8.45;;;;;;;;;;5109705;28;24433;-45
2022/07/30 10:52:03;;;;;;;9.30;8.60;;;;;;;;;;5109577;28;24420;-45
2022/07/30 10:54:31;;;;;;;9.27;8.57;;;;;;;;;;5108954;28;24390;-45
2022/07/30 10:57:04;;;;;;;9.25;8.52;;;;;;;;;;5109440;28;24378;-45
2022/07/30 10:59:49;;;;;;;8.75;8.05;;;;;;;;;;5110050;28;24401;-45
2022/07/30 11:02:18;;;;;;;8.57;7.68;;;;;;;;;;5109068;28;24507;-45
2022/07/30 11:04:44;;;;;;;7.72;7.20;;;;;;;;;;5108736;28;24939;-45
2022/07/30 11:07:22;;;;;;;8.17;7.47;;;;;;;;;;5109523;28;24404;-45
2022/07/30 11:09:48;;;;;;;9.80;8.90;;;;;;;;;;5109447;28;24426;-45
2022/07/30 11:12:13;;;;;;;8.97;8.27;;;;;;;;;;5109039;28;24519;-45
2022/07/30 11:14:44;;;;;;;8.73;8.03;;;;;;;;;;5108724;28;24412;-45
2022/07/30 11:17:09;;;;;;;9.20;8.40;;;;;;;;;;5108524;28;24378;-45
2022/07/30 11:19:55;;;;;;;7.93;7.33;;;;;;;;;;5109403;28;24417;-45
2022/07/30 11:22:21;;;;;;;7.30;6.80;;;;;;;;;;5108532;28;24504;-46
2022/07/30 11:24:46;;;;;;;7.47;6.88;;;;;;;;;;5108810;28;24580;-44
2022/07/30 11:27:33;;;;;;;8.40;7.80;;;;;;;;;;5108590;28;24502;-45
2022/07/30 11:29:59;;;;;;;9.00;8.30;;;;;;;;;;5108856;28;24428;-45
2022/07/30 11:32:32;;;;;;;8.10;7.40;;;;;;;;;;5108590;28;24429;-45
2022/07/30 11:35:11;;;;;;;7.50;6.80;;;;;;;;;;5108719;28;24482;-46
2022/07/30 11:37:54;;;;;;;7.25;6.60;;;;;;;;;;5109158;28;24389;-45
2022/07/30 11:40:19;;;;;;;8.00;7.30;;;;;;;;;;5108198;28;24427;-45
2022/07/30 11:42:45;;;;;;;9.07;8.27;;;;;;;;;;5108473;28;24440;-45
2022/07/30 11:45:16;;;;;;;8.50;7.80;;;;;;;;;;5108068;28;24450;-45
2022/07/30 11:47:49;;;;;;;8.07;7.37;;;;;;;;;;5108209;28;24951;-45
2022/07/30 11:50:20;;;;;;;7.47;6.88;;;;;;;;;;5106952;28;24426;-46
2022/07/30 11:52:52;;;;;;;8.30;7.50;;;;;;;;;;5107727;28;24466;-46
2022/07/30 11:55:21;;;;;;;7.60;7.00;;;;;;;;;;5107782;28;24394;-45
2022/07/30 11:57:46;;;;;;;9.15;8.35;;;;;;;;;;5108489;28;24780;-46
2022/07/30 12:00:11;;;;;;;7.80;7.30;;;;;;;;;;5108006;28;24934;-44
2022/07/30 12:02:36;;;;;;;8.00;7.40;;;;;;;;;;5108335;28;24405;-45
2022/07/30 12:05:03;;;;;;;8.57;7.77;;;;;;;;;;5108724;28;24781;-45
2022/07/30 12:07:28;;;;;;;7.35;6.70;;;;;;;;;;5107998;28;24546;-44
2022/07/30 12:10:10;;;;;;;7.70;6.90;;;;;;;;;;5108161;28;24823;-45
2022/07/30 12:12:35;;;;;;;8.23;7.53;;;;;;;;;;5107662;28;24935;-46
2022/07/30 12:15:00;;;;;;;7.45;6.50;;;;;;;;;;5107994;28;24416;-45
2022/07/30 12:17:41;;;;;;;8.48;7.55;;;;;;;;;;5107888;28;24740;-45
2022/07/30 12:20:14;;;;;;;9.00;8.10;;;;;;;;;;5107847;28;24718;-45
2022/07/30 12:22:39;;;;;;;8.60;7.80;;;;;;;;;;5108260;28;24385;-45
2022/07/30 12:25:05;;;;;;;8.60;7.90;;;;;;;;;;5107264;28;24947;-45
2022/07/30 12:27:31;;;;;;;6.40;5.90;;;;;;;;;;5107732;28;24402;-45
2022/07/30 12:29:56;;;;;;;8.10;7.37;;;;;;;;;;5107653;28;24405;-44
2022/07/30 12:32:21;;;;;;;7.50;6.80;;;;;;;;;;5107535;28;24538;-45
2022/07/30 12:34:54;;;;;;;8.20;7.50;;;;;;;;;;5107439;28;24927;-45
2022/07/30 12:37:19;;;;;;;7.63;6.20;;;;;;;;;;5107672;28;24386;-44
2022/07/30 12:39:44;;;;;;;7.40;6.70;;;;;;;;;;5107248;28;24397;-45
2022/07/30 12:42:16;;;;;;;6.88;6.38;;;;;;;;;;5107729;28;25106;-45
2022/07/30 12:44:43;;;;;;;7.90;7.30;;;;;;;;;;5107340;28;24498;-45
2022/07/30 12:47:25;;;;;;;6.78;6.18;;;;;;;;;;5107015;28;24413;-46
2022/07/30 12:49:51;;;;;;;8.45;7.32;;;;;;;;;;5102613;28;25046;-45
2022/07/30 12:52:23;;;;;;;8.77;7.40;;;;;;;;;;5088611;27;24433;-45
2022/07/30 12:54:58;;;;;;;7.00;6.40;;;;;;;;;;5103499;27;24424;-46
2022/07/30 12:57:23;;;;;;;8.00;7.40;;;;;;;;;;5107108;28;24439;-46
2022/07/30 13:00:00;;;;;;;8.00;7.30;;;;;;;;;;5105291;28;24506;-46
2022/07/30 13:02:32;;;;;;;8.88;7.97;;;;;;;;;;5094056;28;24515;-45
2022/07/30 13:04:57;;;;;;;8.32;7.63;;;;;;;;;;5087020;28;25118;-46
2022/07/30 13:07:22;;;;;;;7.22;6.63;;;;;;;;;;5099266;28;24537;-45
2022/07/30 13:10:04;;;;;;;7.30;6.70;;;;;;;;;;5094615;28;24987;-46
2022/07/30 13:12:29;;;;;;;6.80;6.30;;;;;;;;;;5102311;28;24444;-45
2022/07/30 13:14:54;;;;;;;7.90;7.20;;;;;;;;;;5103517;28;24424;-46
2022/07/30 13:17:19;;;;;;;6.70;6.10;;;;;;;;;;5091479;27;25295;-46
2022/07/30 13:19:44;;;;;;;5.93;5.53;;;;;;;;;;5090017;28;24444;-46
2022/07/30 13:22:10;;;;;;;7.28;6.57;;;;;;;;;;5099093;28;24449;-46
2022/07/30 13:24:35;;;;;;;6.90;6.20;;;;;;;;;;5104160;28;24471;-45
2022/07/30 13:27:00;;;;;;;7.47;6.87;;;;;;;;;;5104682;28;24795;-46
2022/07/30 13:29:25;;;;;;;7.35;6.65;;;;;;;;;;5104419;28;24841;-46
2022/07/30 13:31:51;;;;;;;6.33;5.83;;;;;;;;;;5095775;28;24418;-46
2022/07/30 13:34:16;;;;;;;7.30;6.60;;;;;;;;;;5103611;28;24954;-46
2022/07/30 13:36:41;;;;;;;6.30;5.80;;;;;;;;;;5104008;28;24971;-46
2022/07/30 13:39:07;;;;;;;5.77;5.37;;;;;;;;;;5086655;28;24443;-46
2022/07/30 13:41:32;;;;;;;7.53;6.90;;;;;;;;;;5087083;28;24761;-46
2022/07/30 13:43:58;;;;;;;8.00;7.30;;;;;;;;;;5086271;28;25153;-46
2022/07/30 13:46:23;;;;;;;7.63;6.93;;;;;;;;;;5086326;28;24433;-46
2022/07/30 13:48:48;;;;;;;6.60;6.10;;;;;;;;;;5088289;28;24522;-46
2022/07/30 13:51:15;;;;;;;7.30;6.70;;;;;;;;;;5091573;28;24434;-44
2022/07/30 13:53:40;;;;;;;7.25;6.50;;;;;;;;;;5103799;28;24462;-45
2022/07/30 13:56:05;;;;;;;7.10;6.53;;;;;;;;;;5089097;28;24441;-44
2022/07/30 13:58:31;;;;;;;8.07;7.47;;;;;;;;;;5098018;28;24765;-46
2022/07/30 14:00:56;;;;;;;7.90;7.20;;;;;;;;;;5086224;28;24395;-45
2022/07/30 14:03:21;;;;;;;8.30;7.60;;;;;;;;;;5085721;28;24446;-45
2022/07/30 14:05:47;;;;;;;7.40;6.80;;;;;;;;;;5085973;28;25033;-44
2022/07/30 14:08:12;;;;;;;8.67;7.87;;;;;;;;;;5085905;28;24386;-45
2022/07/30 14:10:38;;;;;;;8.93;8.10;;;;;;;;;;5085872;28;24421;-45
2022/07/30 14:13:04;;;;;;;8.57;7.97;;;;;;;;;;5104449;28;25053;-44
2022/07/30 14:15:30;;;;;;;8.50;7.80;;;;;;;;;;5110355;28;24492;-45
2022/07/30 14:17:55;;;;;;;7.80;7.20;;;;;;;;;;5110269;28;24480;-45
2022/07/30 14:20:20;;;;;;;7.63;7.03;;;;;;;;;;5110489;28;24482;-44
2022/07/30 14:22:45;;;;;;;7.60;7.07;;;;;;;;;;5109947;28;24958;-44
2022/07/30 14:25:11;;;;;;;8.30;7.65;;;;;;;;;;5110039;28;24455;-45
2022/07/30 14:27:36;;;;;;;7.97;7.27;;;;;;;;;;5110104;28;24410;-45
2022/07/30 14:30:03;;;;;;;8.43;7.80;;;;;;;;;;5110045;28;24821;-45
2022/07/30 14:32:28;;;;;;;7.75;7.05;;;;;;;;;;5110155;28;25331;-46
2022/07/30 14:34:54;;;;;;;8.50;7.80;;;;;;;;;;5107691;28;24508;-46
2022/07/30 14:37:19;;;;;;;7.70;7.00;;;;;;;;;;5109946;28;24382;-46
2022/07/30 14:39:44;;;;;;;8.50;7.80;;;;;;;;;;5110068;28;24400;-44
2022/07/30 14:42:09;;;;;;;6.70;6.10;;;;;;;;;;5109507;28;24402;-46